New Baltimore, Pennsylvania
Current Conditions -  °F | °C
As of 4:54 PM on Saturday 25 Oct 2014 (Local Time) from KJST Reporting Station
Overcast Overcast  
Wind Chill: 60°   Ceiling: 3700
Heat Index: 60°   Visibility: 10mi
Dew Point: 46°   Wind: 14mph
Humidity: 60%   Direction: 250°WSW
Pressure: 29.77"   Gusts: 26mph
Location:  39.99°N, 78.77°W
Report Text: KJST 252054Z AUTO 25012G23KT 10SM OVC037 16/08 A2977 RMK AO2 SLP081 T01560078 56022
Loading
Personal Weather Stations






























Interactive Weather Map
Tropical Storm Tracking
New forecast layout! Learn more

10-Day Weather Forecast

Advertisements
Track Severe Weather on mobile